createdAt,value
2023-02-26T00:01:15.435Z,0.98
2023-02-26T00:03:42.859Z,0.90
2023-02-26T00:06:10.343Z,1.35
2023-02-26T00:08:37.775Z,1.08
2023-02-26T00:11:10.716Z,1.00
2023-02-26T00:13:40.097Z,1.38
2023-02-26T00:16:34.332Z,0.80
2023-02-26T00:19:04.611Z,1.05
2023-02-26T00:21:33.399Z,1.10
2023-02-26T00:24:02.257Z,1.10
2023-02-26T00:26:32.030Z,1.77
2023-02-26T00:28:59.861Z,1.90
2023-02-26T00:31:27.959Z,2.13
2023-02-26T00:33:57.983Z,4.00
2023-02-26T00:36:48.276Z,2.58
2023-02-26T00:39:30.641Z,1.88
2023-02-26T00:41:58.083Z,2.55
2023-02-26T00:44:25.768Z,1.90
2023-02-26T00:47:17.989Z,1.48
2023-02-26T00:49:54.036Z,2.80
2023-02-26T00:52:32.373Z,1.67
2023-02-26T00:54:59.604Z,1.85
2023-02-26T00:57:26.771Z,3.00
2023-02-26T00:59:53.903Z,2.00
2023-02-26T01:02:21.116Z,2.30
2023-02-26T01:04:48.652Z,1.75
2023-02-26T01:07:17.974Z,1.77
2023-02-26T01:09:45.492Z,1.38
2023-02-26T01:12:13.464Z,1.63
2023-02-26T01:14:41.572Z,3.20
2023-02-26T01:17:28.009Z,1.83
2023-02-26T01:20:16.863Z,1.30
2023-02-26T01:23:07.327Z,1.35
2023-02-26T01:25:47.452Z,1.17
2023-02-26T01:28:15.388Z,1.40
2023-02-26T01:30:43.209Z,3.03
2023-02-26T01:33:25.109Z,1.73
2023-02-26T01:36:14.116Z,2.17
2023-02-26T01:39:06.472Z,1.95
2023-02-26T01:41:39.697Z,1.95
2023-02-26T01:44:34.639Z,2.42
2023-02-26T01:47:17.206Z,1.45
2023-02-26T01:49:44.783Z,1.20
2023-02-26T01:52:49.328Z,1.90
2023-02-26T01:55:22.425Z,2.05
2023-02-26T01:57:52.457Z,2.65
2023-02-26T02:00:20.885Z,1.95
2023-02-26T02:02:49.981Z,1.75
2023-02-26T02:05:27.547Z,1.23
2023-02-26T02:07:56.885Z,2.20
2023-02-26T02:10:25.576Z,2.30
2023-02-26T02:13:14.126Z,2.70
2023-02-26T02:16:12.079Z,2.08
2023-02-26T02:18:49.937Z,1.38
2023-02-26T02:21:47.909Z,1.40
2023-02-26T02:24:38.326Z,3.03
2023-02-26T02:27:19.950Z,1.98
2023-02-26T02:30:02.934Z,2.15
2023-02-26T02:33:00.791Z,2.40
2023-02-26T02:35:37.895Z,2.28
2023-02-26T02:38:11.640Z,1.70
2023-02-26T02:40:48.153Z,1.55
2023-02-26T02:43:25.995Z,2.70
2023-02-26T02:46:09.099Z,2.25
2023-02-26T02:48:45.308Z,1.67
2023-02-26T02:51:23.903Z,1.63
2023-02-26T02:54:26.754Z,1.92
2023-02-26T02:57:27.732Z,1.85
2023-02-26T02:59:59.526Z,1.98
2023-02-26T03:02:33.769Z,2.08
2023-02-26T03:05:00.816Z,2.38
2023-02-26T03:07:33.480Z,2.00
2023-02-26T03:10:00.993Z,1.85
2023-02-26T03:12:32.092Z,1.40
2023-02-26T03:15:00.210Z,1.65
2023-02-26T03:17:32.895Z,1.52
2023-02-26T03:20:20.206Z,1.73
2023-02-26T03:23:06.219Z,1.58
2023-02-26T03:25:43.786Z,2.10
2023-02-26T03:28:31.942Z,1.20
2023-02-26T03:31:04.029Z,1.58
2023-02-26T03:33:54.845Z,1.70
2023-02-26T03:36:28.563Z,1.55
2023-02-26T03:39:23.461Z,1.23
2023-02-26T03:42:33.208Z,1.85
2023-02-26T03:45:11.549Z,1.50
2023-02-26T03:47:42.840Z,1.92
2023-02-26T03:50:40.452Z,1.50
2023-02-26T03:54:01.438Z,1.83
2023-02-26T03:56:37.848Z,1.75
2023-02-26T03:59:05.211Z,2.00
2023-02-26T04:02:18.974Z,1.60
2023-02-26T04:04:59.407Z,1.98
2023-02-26T04:07:26.871Z,1.60
2023-02-26T04:09:53.954Z,1.98
2023-02-26T04:12:27.895Z,1.65
2023-02-26T04:14:57.269Z,1.80
2023-02-26T04:17:25.637Z,1.40
2023-02-26T04:19:52.701Z,1.95
2023-02-26T04:22:19.929Z,1.50
2023-02-26T04:24:47.101Z,4.03
2023-02-26T04:27:15.315Z,2.80
2023-02-26T04:29:42.443Z,1.80
2023-02-26T04:32:09.655Z,2.60
2023-02-26T04:34:36.805Z,2.50
2023-02-26T04:37:04.815Z,2.72
2023-02-26T04:39:31.893Z,2.17
2023-02-26T04:41:59.031Z,3.03
2023-02-26T04:44:26.207Z,2.70
2023-02-26T04:46:53.388Z,2.13
2023-02-26T04:49:20.828Z,2.78
2023-02-26T04:51:47.989Z,1.85
2023-02-26T04:54:16.552Z,2.17
2023-02-26T04:56:43.616Z,2.53
2023-02-26T04:59:10.868Z,2.13
2023-02-26T05:01:38.099Z,2.97
2023-02-26T05:04:08.202Z,2.40
2023-02-26T05:06:35.433Z,2.60
2023-02-26T05:09:02.531Z,2.00
2023-02-26T05:11:30.973Z,2.40
2023-02-26T05:13:58.077Z,1.90
2023-02-26T05:16:25.608Z,2.40
2023-02-26T05:18:53.292Z,2.10
2023-02-26T05:21:22.505Z,2.10
2023-02-26T05:23:50.532Z,2.70
2023-02-26T05:26:17.640Z,2.80
2023-02-26T05:28:45.880Z,2.80
2023-02-26T05:31:13.936Z,2.35
2023-02-26T05:33:41.627Z,3.05
2023-02-26T05:36:09.293Z,3.67
2023-02-26T05:38:36.367Z,6.78
2023-02-26T05:41:03.554Z,5.00
2023-02-26T05:43:31.125Z,3.65
2023-02-26T05:45:58.423Z,2.60
2023-02-26T05:48:25.558Z,3.08
2023-02-26T05:50:52.870Z,2.97
2023-02-26T05:53:20.094Z,2.72
2023-02-26T05:55:47.165Z,2.05
2023-02-26T05:58:14.662Z,2.58
2023-02-26T06:00:41.769Z,2.30
2023-02-26T06:03:08.976Z,2.40
2023-02-26T06:05:36.369Z,2.08
2023-02-26T06:08:05.568Z,4.72
2023-02-26T06:10:33.156Z,2.50
2023-02-26T06:13:00.354Z,3.63
2023-02-26T06:15:27.489Z,2.55
2023-02-26T06:17:54.535Z,2.58
2023-02-26T06:20:21.643Z,2.38
2023-02-26T06:22:48.741Z,2.92
2023-02-26T06:25:16.502Z,2.53
2023-02-26T06:27:43.662Z,3.90
2023-02-26T06:30:11.689Z,2.90
2023-02-26T06:32:38.752Z,3.70
2023-02-26T06:35:06.946Z,3.30
2023-02-26T06:37:34.002Z,3.45
2023-02-26T06:40:01.121Z,3.40
2023-02-26T06:42:29.298Z,2.83
2023-02-26T06:44:57.793Z,3.10
2023-02-26T06:47:24.997Z,3.05
2023-02-26T06:49:52.383Z,3.72
2023-02-26T06:52:19.847Z,5.10
2023-02-26T06:54:46.898Z,4.03
2023-02-26T06:57:13.956Z,4.25
2023-02-26T06:59:41.091Z,3.72
2023-02-26T07:02:11.389Z,3.72
2023-02-26T07:04:38.431Z,3.10
2023-02-26T07:07:05.505Z,2.55
2023-02-26T07:09:32.592Z,5.45
2023-02-26T07:11:59.639Z,5.35
2023-02-26T07:14:26.941Z,4.63
2023-02-26T07:16:54.097Z,4.63
2023-02-26T07:19:21.569Z,4.30
2023-02-26T07:21:49.087Z,4.60
2023-02-26T07:24:16.350Z,4.55
2023-02-26T07:26:43.451Z,3.22
2023-02-26T07:29:10.533Z,3.97
2023-02-26T07:31:37.667Z,4.05
2023-02-26T07:34:04.797Z,3.67
2023-02-26T07:36:31.906Z,3.25
2023-02-26T07:38:58.996Z,2.65
2023-02-26T07:41:26.080Z,3.03
2023-02-26T07:43:53.119Z,4.32
2023-02-26T07:46:20.238Z,3.67
2023-02-26T07:48:47.487Z,3.80
2023-02-26T07:51:14.646Z,4.50
2023-02-26T07:53:42.005Z,3.75
2023-02-26T07:56:09.921Z,4.25
2023-02-26T07:58:37.184Z,3.15
2023-02-26T08:01:04.476Z,5.22
2023-02-26T08:03:32.337Z,4.18
2023-02-26T08:06:03.087Z,5.97
2023-02-26T08:08:30.177Z,4.22
2023-02-26T08:11:00.004Z,3.63
2023-02-26T08:13:27.369Z,3.95
2023-02-26T08:15:54.512Z,4.43
2023-02-26T08:18:21.724Z,4.40
2023-02-26T08:20:52.312Z,3.50
2023-02-26T08:23:19.755Z,4.57
2023-02-26T08:25:47.341Z,3.35
2023-02-26T08:28:14.889Z,3.55
2023-02-26T08:30:41.950Z,3.70
2023-02-26T08:33:09.011Z,2.45
2023-02-26T08:35:36.029Z,2.80
2023-02-26T08:38:03.165Z,2.78
2023-02-26T08:40:30.328Z,2.83
2023-02-26T08:42:59.767Z,3.10
2023-02-26T08:45:27.248Z,3.40
2023-02-26T08:47:57.254Z,2.40
2023-02-26T08:50:25.964Z,2.40
2023-02-26T08:52:55.530Z,3.15
2023-02-26T08:55:23.097Z,2.55
2023-02-26T08:57:50.138Z,3.42
2023-02-26T09:00:18.797Z,3.28
2023-02-26T09:02:46.447Z,3.08
2023-02-26T09:05:15.292Z,3.35
2023-02-26T09:07:43.902Z,4.25
2023-02-26T09:10:12.091Z,3.55
2023-02-26T09:12:39.178Z,2.85
2023-02-26T09:15:08.079Z,2.75
2023-02-26T09:17:35.563Z,3.88
2023-02-26T09:20:03.508Z,4.40
2023-02-26T09:22:31.117Z,5.68
2023-02-26T09:24:58.214Z,3.85
2023-02-26T09:27:25.355Z,3.03
2023-02-26T09:29:52.585Z,3.63
2023-02-26T09:32:20.610Z,2.53
2023-02-26T09:34:47.915Z,3.78
2023-02-26T09:37:15.040Z,2.80
2023-02-26T09:39:42.097Z,2.50
2023-02-26T09:42:27.812Z,2.78
2023-02-26T09:45:00.310Z,3.13
2023-02-26T09:47:46.815Z,1.95
2023-02-26T09:50:24.348Z,2.17
2023-02-26T09:52:55.804Z,2.30
2023-02-26T09:55:34.865Z,2.97
2023-02-26T09:58:05.356Z,2.20
2023-02-26T10:00:45.754Z,2.22
2023-02-26T10:03:13.109Z,1.63
2023-02-26T10:05:43.377Z,2.33
2023-02-26T10:08:17.631Z,1.95
2023-02-26T10:10:51.497Z,1.55
2023-02-26T10:13:56.001Z,1.60
2023-02-26T10:16:29.971Z,2.15
2023-02-26T10:21:51.769Z,2.63
2023-02-26T10:24:21.557Z,2.53
2023-02-26T10:27:01.581Z,2.38
2023-02-26T10:29:44.002Z,2.17
2023-02-26T10:32:52.650Z,1.73
2023-02-26T10:35:22.568Z,1.85
2023-02-26T10:38:02.882Z,2.30
2023-02-26T10:40:42.564Z,2.45
2023-02-26T10:43:35.552Z,2.78
2023-02-26T10:46:32.662Z,2.88
2023-02-26T10:49:05.664Z,2.22
2023-02-26T10:51:37.811Z,2.97
2023-02-26T10:54:31.527Z,1.95
2023-02-26T10:56:58.765Z,3.53
2023-02-26T10:59:27.132Z,3.25
2023-02-26T11:01:55.161Z,3.42
2023-02-26T11:04:26.347Z,3.33
2023-02-26T11:07:05.116Z,4.50
2023-02-26T11:09:34.346Z,4.20
2023-02-26T11:12:18.090Z,4.10
2023-02-26T11:14:47.762Z,4.68
2023-02-26T11:17:28.231Z,3.92
2023-02-26T11:20:06.036Z,4.30
2023-02-26T11:22:36.783Z,4.97
2023-02-26T11:25:05.638Z,4.80
2023-02-26T11:27:38.235Z,4.30
2023-02-26T11:30:15.535Z,5.15
2023-02-26T11:32:45.619Z,4.68
2023-02-26T11:35:15.463Z,4.82
2023-02-26T11:37:48.738Z,4.70
2023-02-26T11:40:24.526Z,5.35
2023-02-26T11:42:55.910Z,5.40
2023-02-26T11:45:26.597Z,4.85
2023-02-26T11:48:04.513Z,4.25
2023-02-26T11:50:46.540Z,3.75
2023-02-26T11:53:21.968Z,4.10
2023-02-26T11:55:53.851Z,4.90
2023-02-26T11:58:24.741Z,4.78
2023-02-26T12:01:00.151Z,4.65
2023-02-26T12:03:31.884Z,4.53
2023-02-26T12:06:01.430Z,4.25
2023-02-26T12:08:38.664Z,5.10
2023-02-26T12:11:45.133Z,5.28
2023-02-26T12:14:19.707Z,4.75
2023-02-26T12:16:50.110Z,5.82
2023-02-26T12:19:46.871Z,5.88
2023-02-26T12:22:32.928Z,7.07
2023-02-26T12:25:09.502Z,5.78
2023-02-26T12:27:43.343Z,5.47
2023-02-26T12:30:36.633Z,5.35
2023-02-26T12:33:26.387Z,5.53
2023-02-26T12:36:17.107Z,10.30
2023-02-26T12:38:59.344Z,4.90
2023-02-26T12:42:11.145Z,4.93
2023-02-26T12:45:06.663Z,4.75
2023-02-26T12:47:34.166Z,4.50
2023-02-26T12:50:21.031Z,4.65
2023-02-26T12:53:14.617Z,8.02
2023-02-26T12:58:47.638Z,5.57
2023-02-26T13:01:28.466Z,4.95
2023-02-26T13:04:10.470Z,5.38
2023-02-26T13:07:16.659Z,7.65
2023-02-26T13:10:06.163Z,5.05
2023-02-26T13:12:39.244Z,4.15
2023-02-26T13:15:15.820Z,4.65
2023-02-26T13:18:08.676Z,4.43
2023-02-26T13:20:39.381Z,4.22
2023-02-26T13:24:06.037Z,4.47
2023-02-26T13:26:36.132Z,3.90
2023-02-26T13:29:17.036Z,4.55
2023-02-26T13:32:07.474Z,5.32
2023-02-26T13:34:39.118Z,3.30
2023-02-26T13:37:09.660Z,2.85
2023-02-26T13:39:45.383Z,2.42
2023-02-26T13:42:37.413Z,3.50
2023-02-26T13:45:32.712Z,2.05
2023-02-26T13:48:15.756Z,1.80
2023-02-26T13:50:57.490Z,1.95
2023-02-26T13:53:31.327Z,2.17
2023-02-26T13:56:11.662Z,3.20
2023-02-26T13:58:45.376Z,2.25
2023-02-26T14:01:27.841Z,2.42
2023-02-26T14:04:20.356Z,3.05
2023-02-26T14:06:51.733Z,3.30
2023-02-26T14:09:22.200Z,3.42
2023-02-26T14:11:55.992Z,3.45
2023-02-26T14:14:23.764Z,3.55
2023-02-26T14:17:04.561Z,3.13
2023-02-26T14:19:44.734Z,3.78
2023-02-26T14:22:35.580Z,4.18
2023-02-26T14:25:23.356Z,3.92
2023-02-26T14:27:51.427Z,4.32
2023-02-26T14:30:31.487Z,5.30
2023-02-26T14:33:05.568Z,4.10
2023-02-26T14:35:46.733Z,3.70
2023-02-26T14:38:25.413Z,4.85
2023-02-26T14:41:05.946Z,6.18
2023-02-26T14:43:38.359Z,6.78
2023-02-26T14:46:07.694Z,9.57
2023-02-26T14:48:36.625Z,22.95
2023-02-26T14:51:07.200Z,14.90
2023-02-26T14:53:40.695Z,11.63
2023-02-26T14:56:23.447Z,11.48
2023-02-26T14:59:19.423Z,9.88
2023-02-26T15:02:06.605Z,7.90
2023-02-26T15:05:06.198Z,6.65
2023-02-26T15:07:54.931Z,5.15
2023-02-26T15:11:01.563Z,4.50
2023-02-26T15:13:47.061Z,5.10
2023-02-26T15:16:42.828Z,5.47
2023-02-26T15:19:31.885Z,5.57
2023-02-26T15:22:28.369Z,5.93
2023-02-26T15:24:58.479Z,4.20
2023-02-26T15:27:31.235Z,4.55
2023-02-26T15:30:01.420Z,5.03
2023-02-26T15:32:32.161Z,4.40
2023-02-26T15:35:09.409Z,6.13
2023-02-26T15:37:38.931Z,8.27
2023-02-26T15:40:08.263Z,15.52
2023-02-26T15:42:42.716Z,17.38
2023-02-26T15:45:27.669Z,13.90
2023-02-26T15:48:01.106Z,12.43
2023-02-26T15:50:33.781Z,10.15
2023-02-26T15:53:04.488Z,8.60
2023-02-26T15:55:37.592Z,8.75
2023-02-26T16:00:37.881Z,10.30
2023-02-26T16:03:06.086Z,8.25
2023-02-26T16:05:37.271Z,8.82
2023-02-26T16:08:06.466Z,10.10
2023-02-26T16:10:39.554Z,7.70
2023-02-26T16:13:11.764Z,7.30
2023-02-26T16:15:41.075Z,8.77
2023-02-26T16:18:17.265Z,7.88
2023-02-26T16:20:50.366Z,6.55
2023-02-26T16:23:38.329Z,7.43
2023-02-26T16:26:11.164Z,8.77
2023-02-26T16:31:25.935Z,8.25
2023-02-26T16:34:00.971Z,10.48
2023-02-26T16:36:33.917Z,10.35
2023-02-26T16:39:08.510Z,7.57
2023-02-26T16:41:40.877Z,6.07
2023-02-26T16:44:31.248Z,6.55
2023-02-26T16:47:01.737Z,6.05
2023-02-26T16:49:38.874Z,6.30
2023-02-26T16:52:06.997Z,5.75
2023-02-26T16:54:42.985Z,6.03
2023-02-26T16:57:35.171Z,5.20
2023-02-26T17:00:10.129Z,4.88
2023-02-26T17:02:42.197Z,5.90
2023-02-26T17:05:22.585Z,3.87
2023-02-26T17:07:58.629Z,4.38
2023-02-26T17:10:55.252Z,4.35
2023-02-26T17:13:26.995Z,4.40
2023-02-26T17:15:59.866Z,5.35
2023-02-26T17:18:31.421Z,4.25
2023-02-26T17:21:04.873Z,4.13
2023-02-26T17:23:37.648Z,4.95
2023-02-26T17:26:07.299Z,5.97
2023-02-26T17:28:41.972Z,5.97
2023-02-26T17:31:13.324Z,5.78
2023-02-26T17:33:44.046Z,6.13
2023-02-26T17:36:19.263Z,6.03
2023-02-26T17:38:49.218Z,7.57
2023-02-26T17:41:20.954Z,6.97
2023-02-26T17:43:49.241Z,6.50
2023-02-26T17:46:19.043Z,5.97
2023-02-26T17:48:48.767Z,5.20
2023-02-26T17:51:17.310Z,5.28
2023-02-26T17:53:47.285Z,5.47
2023-02-26T17:56:37.535Z,7.03
2023-02-26T17:59:08.146Z,7.57
2023-02-26T18:01:37.863Z,7.82
2023-02-26T18:04:06.896Z,7.53
2023-02-26T18:06:40.852Z,9.02
2023-02-26T18:09:12.534Z,7.45
2023-02-26T18:11:43.680Z,8.77
2023-02-26T18:14:11.868Z,8.38
2023-02-26T18:16:43.011Z,9.63
2023-02-26T18:19:15.744Z,9.73
2023-02-26T18:21:45.802Z,8.50
2023-02-26T18:24:14.179Z,8.18
2023-02-26T18:26:43.622Z,9.65
2023-02-26T18:29:12.376Z,9.75
2023-02-26T18:31:41.111Z,9.52
2023-02-26T18:34:09.964Z,11.25
2023-02-26T18:36:39.714Z,12.23
2023-02-26T18:39:13.758Z,16.45
2023-02-26T18:41:42.296Z,16.60
2023-02-26T18:44:10.542Z,16.98
2023-02-26T18:46:40.955Z,14.20
2023-02-26T18:49:20.559Z,15.13
2023-02-26T18:51:48.895Z,12.77
2023-02-26T18:54:17.296Z,10.80
2023-02-26T18:56:48.749Z,13.07
2023-02-26T18:59:17.047Z,14.40
2023-02-26T19:01:45.526Z,12.82
2023-02-26T19:04:13.942Z,12.98
2023-02-26T19:06:42.154Z,12.10
2023-02-26T19:09:10.605Z,12.35
2023-02-26T19:11:39.585Z,11.73
2023-02-26T19:14:07.970Z,11.75
2023-02-26T19:16:39.539Z,11.38
2023-02-26T19:19:11.967Z,11.15
2023-02-26T19:21:42.376Z,10.93
2023-02-26T19:24:13.019Z,11.32
2023-02-26T19:26:42.616Z,11.45
2023-02-26T19:29:21.162Z,9.63
2023-02-26T19:31:49.601Z,9.70
2023-02-26T19:34:18.061Z,9.38
2023-02-26T19:36:49.807Z,8.60
2023-02-26T19:39:19.292Z,8.60
2023-02-26T19:41:53.513Z,9.88
2023-02-26T19:44:24.181Z,9.60
2023-02-26T19:46:53.662Z,9.82
2023-02-26T19:49:23.872Z,9.38
2023-02-26T19:51:53.085Z,9.20
2023-02-26T19:54:21.230Z,8.30
2023-02-26T19:56:50.234Z,7.57
2023-02-26T19:59:19.840Z,7.15
2023-02-26T20:01:50.259Z,8.02
2023-02-26T20:04:19.494Z,6.60
2023-02-26T20:06:47.452Z,6.65
2023-02-26T20:09:17.848Z,6.32
2023-02-26T20:11:46.419Z,7.15
2023-02-26T20:14:15.088Z,6.10
2023-02-26T20:16:43.328Z,6.82
2023-02-26T20:19:11.564Z,5.95
2023-02-26T20:21:40.016Z,7.53
2023-02-26T20:24:09.154Z,6.78
2023-02-26T20:26:38.896Z,6.88
2023-02-26T20:29:07.130Z,7.00
2023-02-26T20:31:35.927Z,6.95
2023-02-26T20:34:04.056Z,6.57
2023-02-26T20:36:32.749Z,6.68
2023-02-26T20:39:02.686Z,6.90
2023-02-26T20:41:32.124Z,10.20
2023-02-26T20:44:01.215Z,16.27
2023-02-26T20:46:30.406Z,13.23
2023-02-26T20:48:59.925Z,17.15
2023-02-26T20:51:28.564Z,18.65
2023-02-26T20:53:56.772Z,21.08
2023-02-26T20:56:26.488Z,20.00
2023-02-26T20:58:55.365Z,15.68
2023-02-26T21:01:23.919Z,11.35
2023-02-26T21:03:54.789Z,10.68
2023-02-26T21:06:24.342Z,7.72
2023-02-26T21:08:52.339Z,7.63
2023-02-26T21:11:20.142Z,6.57
2023-02-26T21:13:48.213Z,7.82
2023-02-26T21:16:16.034Z,8.52
2023-02-26T21:18:45.508Z,7.63
2023-02-26T21:21:14.637Z,9.65
2023-02-26T21:23:42.262Z,9.45
2023-02-26T21:26:11.114Z,10.07
2023-02-26T21:28:39.149Z,9.75
2023-02-26T21:31:06.852Z,10.57
2023-02-26T21:33:34.346Z,11.48
2023-02-26T21:36:02.211Z,11.13
2023-02-26T21:38:29.633Z,75.53
2023-02-26T21:40:56.989Z,22.00
2023-02-26T21:43:26.151Z,13.20
2023-02-26T21:45:54.178Z,12.27
2023-02-26T21:48:21.597Z,11.20
2023-02-26T21:50:52.151Z,11.43
2023-02-26T21:53:19.375Z,11.95
2023-02-26T21:55:46.662Z,11.55
2023-02-26T21:58:13.942Z,10.95
2023-02-26T22:00:41.243Z,9.98
2023-02-26T22:03:08.379Z,9.82
2023-02-26T22:05:35.473Z,9.02
2023-02-26T22:08:02.583Z,9.73
2023-02-26T22:10:29.764Z,8.70
2023-02-26T22:12:57.357Z,7.68
2023-02-26T22:15:24.429Z,7.60
2023-02-26T22:17:51.532Z,7.53
2023-02-26T22:20:18.883Z,7.55
2023-02-26T22:22:46.007Z,6.47
2023-02-26T22:25:13.664Z,6.55
2023-02-26T22:27:40.881Z,7.43
2023-02-26T22:30:09.084Z,7.10
2023-02-26T22:32:36.308Z,7.10
2023-02-26T22:35:03.897Z,7.90
2023-02-26T22:37:31.090Z,7.15
2023-02-26T22:39:58.198Z,7.43
2023-02-26T22:42:25.352Z,8.07
2023-02-26T22:44:52.427Z,7.70
2023-02-26T22:47:19.578Z,8.40
2023-02-26T22:49:46.712Z,8.98
2023-02-26T22:52:14.255Z,8.88
2023-02-26T22:54:41.538Z,10.25
2023-02-26T22:57:08.840Z,8.40
2023-02-26T22:59:35.940Z,8.27
2023-02-26T23:02:03.086Z,8.27
2023-02-26T23:04:30.235Z,8.18
2023-02-26T23:06:57.480Z,8.38
2023-02-26T23:09:24.643Z,5.88
2023-02-26T23:11:51.757Z,6.10
2023-02-26T23:14:18.994Z,5.82
2023-02-26T23:16:46.360Z,4.97
2023-02-26T23:19:13.514Z,4.57
2023-02-26T23:21:40.995Z,4.90
2023-02-26T23:24:08.136Z,4.18
2023-02-26T23:26:35.250Z,3.72
2023-02-26T23:29:02.362Z,4.30
2023-02-26T23:31:30.122Z,2.97
2023-02-26T23:33:57.495Z,3.75
2023-02-26T23:36:24.562Z,2.65
2023-02-26T23:38:51.709Z,3.03
2023-02-26T23:41:18.959Z,2.55
2023-02-26T23:43:46.108Z,2.10
2023-02-26T23:46:13.403Z,2.60
2023-02-26T23:48:40.509Z,2.97
2023-02-26T23:51:07.530Z,3.17
2023-02-26T23:53:34.649Z,2.63
2023-02-26T23:56:02.221Z,1.85
2023-02-26T23:58:31.332Z,1.92
